Centre Hospitalier Saint-Nazaire

FR-0160 · Loira Atlantica, Paesi della Loira, Francia

Storia di METAR FR-0160 · Centre Hospitalier Saint-Nazaire

Di seguito sono riportati i METAR degli ultimi giorni. Seleziona un anno per sfogliare i METAR più vecchi, dall'anno 2007 in poi.

18 luglio 2024

Tempo Codice Tempo meteorologico Temp. Vista Base nuvolosa Vento METAR/SPECI
06:30
V
16 °C 10 km+ - 050° 050° 4 kt METAR LFRZ 180430Z AUTO 05004KT CAVOK 16/14 Q1018 NOSIG
06:00
V
16 °C 10 km+ - Var Var 2 kt METAR LFRZ 180400Z AUTO VRB02KT CAVOK 16/14 Q1018 NOSIG
05:30
V
17 °C 10 km+ - 050° 050° 5 kt METAR LFRZ 180330Z AUTO 05005KT CAVOK 17/15 Q1018 NOSIG
05:00
V
17 °C 10 km+ - 020° 020° 5 kt METAR LFRZ 180300Z AUTO 02005KT CAVOK 17/15 Q1018 NOSIG
04:30
V
17 °C 10 km+ - 360° 360° 5 kt METAR LFRZ 180230Z AUTO 36005KT CAVOK 17/15 Q1018 NOSIG
04:00
V
17 °C 10 km+ - 360° 360° 3 kt METAR LFRZ 180200Z AUTO 36003KT CAVOK 17/15 Q1018 NOSIG
03:30
V
17 °C 10 km+ - 010° 010° 2 kt METAR LFRZ 180130Z AUTO 01002KT CAVOK 17/15 Q1018 NOSIG
03:00
V
17 °C 10 km+ - 020° 020° 2 kt METAR LFRZ 180100Z AUTO 02002KT CAVOK 17/16 Q1018 NOSIG
02:30
V
18 °C 10 km+ - 010° 010° 3 kt METAR LFRZ 180030Z AUTO 01003KT CAVOK 18/16 Q1018 NOSIG
02:00
V
18 °C 10 km+ - 340° 340° 3 kt METAR LFRZ 180000Z AUTO 34003KT CAVOK 18/16 Q1019 NOSIG
01:30
V
18 °C 10 km+ - Var Var 2 kt METAR LFRZ 172330Z AUTO VRB02KT CAVOK 18/15 Q1019 NOSIG
01:00
V
18 °C 10 km+ - Var Var 2 kt METAR LFRZ 172300Z AUTO VRB02KT CAVOK 18/15 Q1019 NOSIG
00:30
V
19 °C 10 km+ - Var Var 3 kt METAR LFRZ 172230Z AUTO VRB03KT CAVOK 19/15 Q1019 NOSIG
00:00
V
19 °C 10 km+ - 330° 330° 6 kt METAR LFRZ 172200Z AUTO 33006KT CAVOK 19/15 Q1019 NOSIG

17 luglio 2024

Tempo Codice Tempo meteorologico Temp. Vista Base nuvolosa Vento METAR/SPECI
23:30
V
19 °C 10 km+ - 330° 330° 6 kt METAR LFRZ 172130Z AUTO 33006KT CAVOK 19/15 Q1019 NOSIG
23:00
V
19 °C 10 km+ - 320° 320° 5 kt METAR LFRZ 172100Z AUTO 32005KT CAVOK 19/15 Q1019 NOSIG
22:30
V
19 °C 10 km+ - 310° 310° 5 kt METAR LFRZ 172030Z AUTO 31005KT CAVOK 19/15 Q1019 NOSIG
22:00
V
19 °C 10 km+ - 300° 300° 7 kt METAR LFRZ 172000Z AUTO 30007KT CAVOK 19/15 Q1019 NOSIG
21:30
V
20 °C 10 km+ - 300° 300° 7 kt METAR LFRZ 171930Z AUTO 30007KT CAVOK 20/15 Q1019 NOSIG
21:00
V
22 °C 10 km+ - 060° 060° 3 kt METAR LFRZ 171900Z AUTO 06003KT CAVOK 22/16 Q1019 NOSIG
20:30
V
23 °C 10 km+ - 060° 060° 5 kt METAR LFRZ 171830Z AUTO 06005KT CAVOK 23/15 Q1019 NOSIG
20:00
V
24 °C 10 km+ - 060° 060° 7 kt METAR LFRZ 171800Z AUTO 06007KT CAVOK 24/15 Q1019 NOSIG
19:30
V
24 °C 10 km+ 24.000 ft 090° 090° 6 kt METAR LFRZ 171730Z AUTO 09006KT 070V130 9999 FEW043 OVC240 24/15 Q1019 NOSIG
19:00
V
24 °C 10 km+ 4.300 ft 100° 100° 4 kt METAR LFRZ 171700Z AUTO 10004KT 060V140 9999 BKN043 BKN240 24/15 Q1019 TEMPO 28010KT
18:30
V
24 °C 10 km+ 4.200 ft 110° 110° 5 kt METAR LFRZ 171630Z AUTO 11005KT 060V170 9999 BKN042 24/14 Q1019 TEMPO 28010KT
18:00
V
24 °C 10 km+ 4.300 ft 110° 110° 6 kt METAR LFRZ 171600Z AUTO 11006KT 050V140 9999 BKN043 24/15 Q1019 TEMPO 28010KT
17:30
V
24 °C 10 km+ - 140° 140° 7 kt METAR LFRZ 171530Z AUTO 14007KT 100V170 9999 FEW042 24/14 Q1019 TEMPO 28010KT
17:00
V
24 °C 10 km+ - 130° 130° 6 kt METAR LFRZ 171500Z AUTO 13006KT 100V170 CAVOK 24/14 Q1020 TEMPO 28010KT
16:30
V
24 °C 10 km+ - 090° 090° 6 kt METAR LFRZ 171430Z AUTO 09006KT 050V130 CAVOK 24/13 Q1020 TEMPO 28010KT
16:00
V
24 °C 10 km+ - Var Var 7 kt METAR LFRZ 171400Z AUTO VRB07KT CAVOK 24/13 Q1020 NOSIG
15:30
V
23 °C 10 km+ - 200° 200° 7 kt METAR LFRZ 171330Z AUTO 20007KT 160V230 CAVOK 23/15 Q1020 NOSIG
15:00
V
23 °C 10 km+ - 140° 140° 6 kt METAR LFRZ 171300Z AUTO 14006KT 110V170 CAVOK 23/14 Q1020 NOSIG
14:30
V
23 °C 10 km+ - 130° 130° 7 kt METAR LFRZ 171230Z AUTO 13007KT 100V160 CAVOK 23/15 Q1020 NOSIG
14:00
V
22 °C 10 km+ - 140° 140° 7 kt METAR LFRZ 171200Z AUTO 14007KT 090V160 CAVOK 22/15 Q1021 NOSIG
13:30
V
22 °C 10 km+ - 130° 130° 6 kt METAR LFRZ 171130Z AUTO 13006KT 070V200 9999 FEW042 22/15 Q1021 NOSIG
13:00
V
22 °C 10 km+ - 140° 140° 5 kt METAR LFRZ 171100Z AUTO 14005KT 030V200 9999 FEW024 22/15 Q1021 NOSIG
12:30
V
21 °C 10 km+ - 130° 130° 6 kt METAR LFRZ 171030Z AUTO 13006KT 070V170 CAVOK 21/15 Q1021 NOSIG
12:00
V
20 °C 10 km+ - 130° 130° 7 kt METAR LFRZ 171000Z AUTO 13007KT 080V180 9999 SCT019 20/16 Q1021 NOSIG
11:30
V
20 °C 10 km+ - 130° 130° 8 kt METAR LFRZ 170930Z AUTO 13008KT 070V160 9999 FEW015 20/16 Q1021 NOSIG
11:00
V
19 °C 10 km+ - 140° 140° 10 kt METAR LFRZ 170900Z AUTO 14010KT 9999 FEW017 19/16 Q1021 NOSIG
10:30
M
19 °C 10 km+ 1.400 ft 110° 110° 7 kt METAR LFRZ 170830Z AUTO 11007KT 080V150 9999 BKN014 19/16 Q1021 BECMG SCT030
10:00
M
18 °C 10 km+ 1.100 ft 070° 070° 5 kt METAR LFRZ 170800Z AUTO 07005KT 030V120 9999 SCT007 BKN011 18/16 Q1021 BECMG SCT030
09:30
L
17 °C 10 km+ 400 ft 080° 080° 6 kt METAR LFRZ 170730Z AUTO 08006KT 9999 BKN004 17/16 Q1021 BECMG SCT030
09:00
L
16 °C 9 km - Var Var 3 kt METAR LFRZ 170700Z AUTO VRB03KT 9000 VV/// 16/15 Q1021 BECMG SCT030
08:30
L
14 °C 800 m - 060° 060° 4 kt METAR LFRZ 170630Z AUTO 06004KT 1100 0800 R25/1200U BCFG VV/// 14/14 Q1021 BECMG 9999 NSW SCT030
08:00
L
13 °C 900 m - 050° 050° 2 kt METAR LFRZ 170600Z AUTO 05002KT 1000 0900 R25/1500U BCFG VV/// 13/13 Q1021 BECMG CAVOK
07:30
L
12 °C 500 m - 070° 070° 2 kt METAR LFRZ 170530Z AUTO 07002KT 0500 R25/0800U FG VV/// 12/12 Q1021 BECMG CAVOK
07:00
L
13 °C 200 m - 050° 050° 4 kt METAR LFRZ 170500Z AUTO 05004KT 0300 0200 R25/0225N FG VV/// 13/12 Q1020 TEMPO 0400 FG
06:30
L
13 °C 450 m 1.100 ft Var Var 3 kt METAR LFRZ 170430Z AUTO VRB03KT 5000 0450 R25/0600N BCFG SCT006 BKN011 BKN016 13/12 Q1020 TEMPO 0400 FG VV///
06:00
L
12 °C 550 m - 010° 010° 2 kt METAR LFRZ 170400Z AUTO 01002KT 0900 0550 R25/0800U FG SCT008 12/12 Q1020 TEMPO 0400 FG VV///
05:30
L
13 °C 200 m 800 ft 360° 360° 0 kt METAR LFRZ 170330Z AUTO 00000KT 0450 0200 R25/0300N FG BKN008 13/12 Q1020 BECMG CAVOK
05:00
I
14 °C 1,9 km - 360° 360° 0 kt METAR LFRZ 170300Z AUTO 00000KT 5000 1900 BR NSC 14/13 Q1020 NOSIG
04:30
V
14 °C 10 km+ - Var Var 2 kt METAR LFRZ 170230Z AUTO VRB02KT CAVOK 14/13 Q1020 NOSIG
04:00
V
15 °C 10 km+ 4.300 ft 300° 300° 4 kt METAR LFRZ 170200Z AUTO 30004KT 9999 SCT034 BKN043 15/14 Q1020 NOSIG
03:30
V
15 °C 10 km+ - 290° 290° 5 kt METAR LFRZ 170130Z AUTO 29005KT 9999 SCT033 15/14 Q1020 NOSIG
03:00
V
15 °C 10 km+ - 270° 270° 5 kt METAR LFRZ 170100Z AUTO 27005KT CAVOK 15/14 Q1020 NOSIG
02:30
V
15 °C 10 km+ - 260° 260° 6 kt METAR LFRZ 170030Z AUTO 26006KT CAVOK 15/14 Q1020 NOSIG
02:00
V
14 °C 10 km+ - 250° 250° 5 kt METAR LFRZ 170000Z AUTO 25005KT CAVOK 14/13 Q1020 NOSIG
01:30
V
14 °C 10 km+ - 240° 240° 5 kt METAR LFRZ 162330Z AUTO 24005KT CAVOK 14/13 Q1020 NOSIG
01:00
V
15 °C 10 km+ - 250° 250° 4 kt METAR LFRZ 162300Z AUTO 25004KT CAVOK 15/13 Q1020 NOSIG
00:30
V
15 °C 10 km+ - 250° 250° 5 kt METAR LFRZ 162230Z AUTO 25005KT CAVOK 15/14 Q1020 NOSIG
00:00
V
15 °C 10 km+ - 250° 250° 5 kt METAR LFRZ 162200Z AUTO 25005KT CAVOK 15/14 Q1020 NOSIG

16 luglio 2024

Tempo Codice Tempo meteorologico Temp. Vista Base nuvolosa Vento METAR/SPECI
23:30
V
15 °C 10 km+ - 240° 240° 6 kt METAR LFRZ 162130Z AUTO 24006KT CAVOK 15/14 Q1019 NOSIG
23:00
V
16 °C 10 km+ - 230° 230° 4 kt METAR LFRZ 162100Z AUTO 23004KT CAVOK 16/14 Q1019 NOSIG
22:30
V
16 °C 10 km+ - 230° 230° 6 kt METAR LFRZ 162030Z AUTO 23006KT CAVOK 16/14 Q1019 NOSIG
22:00
V
17 °C 10 km+ - 260° 260° 7 kt METAR LFRZ 162000Z AUTO 26007KT CAVOK 17/14 Q1019 NOSIG
21:30
V
18 °C 10 km+ 20.000 ft 260° 260° 8 kt METAR LFRZ 161930Z AUTO 26008KT 9999 SCT019 BKN200 18/15 Q1019 NOSIG
21:00
M
19 °C 10 km+ 1.800 ft 270° 270° 8 kt METAR LFRZ 161900Z AUTO 27008KT 240V300 9999 BKN018 OVC200 19/15 Q1019 NOSIG
20:30
M
19 °C 10 km+ 2.000 ft 260° 260° 10 kt METAR LFRZ 161830Z AUTO 26010KT 9999 BKN020 OVC220 19/15 Q1019 NOSIG
20:00
V
19 °C 10 km+ 23.000 ft 260° 260° 11 kt METAR LFRZ 161800Z AUTO 26011KT 9999 SCT020 BKN230 19/15 Q1018 NOSIG
19:30
M
19 °C 10 km+ 1.800 ft 250° 250° 10 kt METAR LFRZ 161730Z AUTO 25010KT 9999 BKN018 OVC190 19/15 Q1018 NOSIG
19:00
V
19 °C 10 km+ 21.000 ft 260° 260° 11 kt METAR LFRZ 161700Z AUTO 26011KT 9999 FEW019 OVC210 19/15 Q1018 NOSIG
18:30
V
19 °C 10 km+ - 270° 270° 11 kt METAR LFRZ 161630Z AUTO 27011KT CAVOK 19/14 Q1018 NOSIG
18:00
V
20 °C 10 km+ - 270° 270° 13 kt METAR LFRZ 161600Z AUTO 27013KT 9999 FEW022 20/14 Q1018 NOSIG
17:30
V
21 °C 10 km+ - 270° 270° 12 kt METAR LFRZ 161530Z AUTO 27012KT 9999 SCT023 SCT029 21/15 Q1018 NOSIG
17:00
M
20 °C 10 km+ 2.100 ft 250° 250° 13 kt METAR LFRZ 161500Z AUTO 25013KT 230V300 9999 BKN021 BKN030 BKN240 20/15 Q1018 NOSIG
16:30
V
20 °C 10 km+ 5.200 ft 260° 260° 12 kt METAR LFRZ 161430Z AUTO 26012KT 9999 FEW024 BKN052 20/15 Q1018 NOSIG
16:00
V
20 °C 10 km+ 5.000 ft 270° 270° 11 kt METAR LFRZ 161400Z AUTO 27011KT 240V300 9999 SCT020 OVC050 20/15 Q1018 NOSIG
15:30
V
20 °C 10 km+ 5.200 ft 260° 260° 12 kt METAR LFRZ 161330Z AUTO 26012KT 9999 FEW020 SCT043 OVC052 20/15 Q1018 NOSIG
15:00
M
20 °C 10 km+ 2.000 ft 260° 260° 13 kt METAR LFRZ 161300Z AUTO 26013KT 240V300 9999 BKN020 BKN047 OVC054 20/15 Q1017 NOSIG
14:30
M
19 °C 10 km+ 2.200 ft 250° 250° 14 kt METAR LFRZ 161230Z AUTO 25014KT 220V280 9999 BKN022 BKN029 OVC049 19/15 Q1017 NOSIG
14:00
M
20 °C 10 km+ 2.400 ft 250° 250° 15 kt METAR LFRZ 161200Z AUTO 25015KT 9999 BKN024 BKN030 BKN037 20/14 Q1017 NOSIG
13:30
M
20 °C 10 km+ 2.300 ft 240° 240° 15 kt METAR LFRZ 161130Z AUTO 24015KT 9999 BKN023 BKN033 BKN041 20/15 Q1017 NOSIG
13:00
M
20 °C 10 km+ 2.300 ft 240° 240° 15 kt METAR LFRZ 161100Z AUTO 24015KT 9999 BKN023 BKN029 OVC050 20/15 Q1016 NOSIG
12:30
M
20 °C 10 km+ 2.400 ft 250° 250° 15 kt METAR LFRZ 161030Z AUTO 25015KT 9999 BKN024 BKN038 OVC052 20/14 Q1016 NOSIG
12:00
M
20 °C 10 km+ 2.200 ft 230° 230° 14 kt METAR LFRZ 161000Z AUTO 23014KT 9999 BKN022 BKN028 20/15 Q1016 TEMPO 4000 SHRA SCT014 BKN020TCU
11:30
M
20 °C 10 km+ 1.800 ft 250° 250° 12 kt METAR LFRZ 160930Z AUTO 25012KT 9999 BKN018 BKN024 BKN056 20/15 Q1016 TEMPO 4000 SHRA SCT014 BKN020TCU
11:00
M
19 °C 10 km+ 1.700 ft 240° 240° 13 kt METAR LFRZ 160900Z AUTO 24013KT 9999 BKN017 BKN026 OVC060 19/15 Q1016 TEMPO 4000 SHRA SCT014 BKN020TCU
10:30
M
18 °C 10 km+ 1.600 ft 250° 250° 10 kt METAR LFRZ 160830Z AUTO 25010KT 9999 BKN016 BKN022 OVC060 18/15 Q1016 TEMPO 4000 SHRA SCT014 BKN020TCU
10:00
V
18 °C 10 km+ 5.800 ft 230° 230° 9 kt METAR LFRZ 160800Z AUTO 23009KT 9999 FEW013 OVC058 18/16 Q1015 TEMPO 4000 SHRA SCT014 BKN020TCU
09:30
V
17 °C 10 km+ 4.700 ft 240° 240° 7 kt METAR LFRZ 160730Z AUTO 24007KT 9999 FEW018 BKN047 BKN054 17/15 Q1015 TEMPO 4000 SHRA SCT014 BKN020TCU
09:00
V
16 °C 10 km+ 4.900 ft 250° 250° 6 kt METAR LFRZ 160700Z AUTO 25006KT 9999 FEW035/// OVC049/// ///TCU 16/14 Q1015 TEMPO 4000 SHRA
08:30
I
16 °C 3,8 km 1.100 ft 280° 280° 10 kt METAR LFRZ 160630Z AUTO 28010KT 240V300 3800 -RA BR SCT007/// BKN011/// BKN030/// //////CB 16/14 Q1015 TEMPO SHRA SCT014 BKN020TCU
08:00
V
17 °C 10 km+ 4.500 ft 240° 240° 8 kt METAR LFRZ 160600Z AUTO 24008KT 9999 FEW039/// BKN045/// BKN066/// //////TCU 17/15 Q1014 TEMPO 4000 SHRA
07:30
V
17 °C 10 km+ 4.100 ft 240° 240° 6 kt METAR LFRZ 160530Z AUTO 24006KT 9999 FEW016/// SCT024/// BKN041/// //////TCU 17/15 Q1014 TEMPO 4000 SHRA
07:00
V
16 °C 10 km+ 3.900 ft 240° 240° 7 kt METAR LFRZ 160500Z AUTO 24007KT 9999 FEW020/// BKN039/// //////TCU 16/14 Q1014 TEMPO 4000 SHRA
06:30
M
16 °C 10 km+ 3.000 ft 250° 250° 8 kt METAR LFRZ 160430Z AUTO 25008KT 9999 SCT023 BKN030 OVC060 16/14 Q1014 TEMPO 4000 SHRA SCT014 BKN020TCU
06:00
V
16 °C 10 km+ - 250° 250° 8 kt METAR LFRZ 160400Z AUTO 25008KT 9999 FEW017 16/14 Q1013 TEMPO 4000 SHRA SCT014 BKN020TCU
05:30
V
16 °C 10 km+ 3.400 ft 250° 250° 8 kt METAR LFRZ 160330Z AUTO 25008KT 9999 FEW018 BKN034 BKN042 16/14 Q1013 TEMPO 4000 SHRA SCT014 BKN020TCU
05:00
V
17 °C 10 km+ - 260° 260° 12 kt METAR LFRZ 160300Z AUTO 26012KT 9999 SCT017 SCT026 17/14 Q1013 TEMPO 4000 SHRA SCT014 BKN020TCU
04:30
V
17 °C 10 km+ 4.200 ft 260° 260° 11 kt METAR LFRZ 160230Z AUTO 26011KT 9999 FEW017 SCT032 BKN042 17/15 Q1013 TEMPO 4000 SHRA SCT014 BKN020TCU
04:00
M
17 °C 10 km+ 1.700 ft 260° 260° 13 kt METAR LFRZ 160200Z AUTO 26013KT 9999 BKN017/// BKN025/// BKN031/// //////TCU 17/15 Q1012 TEMPO 4000 SHRA
03:30
M
17 °C 10 km+ 1.700 ft 260° 260° 12 kt METAR LFRZ 160130Z AUTO 26012KT 9999 BKN017 BKN029 BKN044 17/15 Q1012 TEMPO 4000 SHRA SCT014 BKN020TCU
03:00
M
17 °C 10 km+ 1.700 ft 250° 250° 11 kt METAR LFRZ 160100Z AUTO 25011KT 9999 BKN017 BKN025 OVC032 17/15 Q1012 TEMPO 4000 SHRA SCT014 BKN020TCU
02:30
M
17 °C 10 km+ 1.800 ft 250° 250° 12 kt METAR LFRZ 160030Z AUTO 25012KT 9999 BKN018/// BKN024/// //////TCU 17/15 Q1012 TEMPO 4000 SHRA
02:00
M
17 °C 10 km+ 2.700 ft 240° 240° 11 kt METAR LFRZ 160000Z AUTO 24011KT 9999 SCT019 BKN027 BKN060 17/15 Q1012 TEMPO 4000 SHRA SCT014 BKN020TCU
01:30
V
17 °C 10 km+ 5.600 ft 240° 240° 12 kt METAR LFRZ 152330Z AUTO 24012KT 200V260 9999 SCT018/// SCT027/// BKN056/// ///TCU 17/15 Q1012 TEMPO 4000 SHRA
01:00
M
17 °C 10 km+ 2.100 ft 240° 240° 10 kt METAR LFRZ 152300Z AUTO 24010KT 9999 BKN021 17/15 Q1012 TEMPO 25015G25KT 4000 SHRA SCT014 BKN020TCU
00:30
V
17 °C 10 km+ - 240° 240° 10 kt METAR LFRZ 152230Z AUTO 24010KT CAVOK 17/14 Q1012 TEMPO 25015G25KT 4000 SHRA SCT014 BKN020TCU
00:00
V
17 °C 10 km+ - 240° 240° 12 kt METAR LFRZ 152200Z AUTO 24012KT 9999 SCT018 17/15 Q1012 TEMPO 4000 SHRA SCT014 BKN020TCU BECMG 25015G25KT

15 luglio 2024

Tempo Codice Tempo meteorologico Temp. Vista Base nuvolosa Vento METAR/SPECI
23:30
M
18 °C 10 km+ 1.700 ft 250° 250° 11 kt METAR LFRZ 152130Z AUTO 25011KT 9999 BKN017 BKN025 BKN031 18/15 Q1012 TEMPO 4000 SHRA SCT014 BKN020TCU BECMG 25015G25KT
23:00
M
18 °C 10 km+ 2.300 ft 240° 240° 11 kt METAR LFRZ 152100Z AUTO 24011KT 9999 SCT018 BKN023 BKN028 18/15 Q1011 TEMPO 4000 SHRA SCT014 BKN020TCU BECMG 25015G25KT
22:30
M
18 °C 10 km+ 1.800 ft 240° 240° 11 kt METAR LFRZ 152030Z AUTO 24011KT 9999 BKN018 BKN023 BKN039 18/15 Q1011 TEMPO 4000 SHRA SCT014 BKN020TCU BECMG 25015G25KT
22:00
M
18 °C 10 km+ 2.600 ft 250° 250° 13 kt METAR LFRZ 152000Z AUTO 25013KT 9999 SCT017 BKN026 18/15 Q1011 TEMPO 4000 SHRA SCT014 BKN020TCU BECMG 25015G25KT
21:30
M
18 °C 10 km+ 1.700 ft 240° 240° 13 kt METAR LFRZ 151930Z AUTO 24013KT 9999 BKN017 18/15 Q1011 TEMPO 4000 SHRA SCT014 BKN020TCU BECMG 25015G25KT
21:00
M
19 °C 10 km+ 1.600 ft 250° 250° 15 kt METAR LFRZ 151900Z AUTO 25015KT 9999 BKN016 OVC021 19/15 Q1010 TEMPO 4000 SHRA SCT014 BKN020TCU BECMG 25015G25KT
20:30
M
19 °C 10 km+ 1.800 ft 250° 250° 13 kt METAR LFRZ 151830Z AUTO 25013KT 9999 BKN018 BKN024 BKN048 19/16 Q1010 TEMPO 4000 SHRA SCT014 BKN020TCU BECMG 25015G25KT
20:00
M
20 °C 10 km+ 1.800 ft 230° 230° 16 kt METAR LFRZ 151800Z AUTO 23016KT 9999 BKN018/// BKN025/// OVC049/// ///TCU 20/15 Q1010 BECMG BKN030
19:30
M
20 °C 10 km+ 1.900 ft 230° 230° 14 kt METAR LFRZ 151730Z AUTO 23014KT 9999 BKN019 BKN038 BKN068 20/16 Q1010 NOSIG
19:00
M
20 °C 10 km+ 2.100 ft 240° 240° 14 kt METAR LFRZ 151700Z AUTO 24014KT 9999 BKN021 OVC030 20/15 Q1010 TEMPO 3000 SHRA BKN018TCU BECMG 24017G30KT
18:30
M
20 °C 10 km+ 2.000 ft 240° 240° 16 kt METAR LFRZ 151630Z AUTO 24016KT 9999 BKN020 BKN026 20/15 Q1010 TEMPO 3000 SHRA BKN018TCU BECMG 24017G30KT
18:00
M
20 °C 10 km+ 2.000 ft 240° 240° 17 kt METAR LFRZ 151600Z AUTO 24017KT 9999 BKN020 OVC036 20/15 Q1010 TEMPO 3000 SHRA BKN018TCU BECMG 24017G30KT
17:30
M
20 °C 10 km+ 2.100 ft 240° 240° 18 kt METAR LFRZ 151530Z AUTO 24018KT 9999 OVC021 20/15 Q1010 TEMPO 3000 SHRA BKN018TCU BECMG 24017G30KT
17:00
M
20 °C 10 km+ 2.200 ft 240° 240° 19 kt METAR LFRZ 151500Z AUTO 24019KT 210V270 9999 BKN022 OVC028 20/15 Q1010 TEMPO 3000 SHRA BKN018TCU BECMG 24017G30KT
16:30
V
20 °C 10 km+ - 260° 260° 21 kt METAR LFRZ 151430Z AUTO 26021KT 9999 SCT025 20/14 Q1009 TEMPO 3000 SHRA BKN018TCU BECMG 24017G30KT
16:00
M
21 °C 10 km+ 2.300 ft 250° 250° 20 kt METAR LFRZ 151400Z AUTO 25020KT 9999 BKN023 21/14 Q1009 BECMG 24017G30KT
15:30
M
20 °C 10 km+ 2.200 ft 250° 250° 22 kt METAR LFRZ 151330Z AUTO 25022KT 9999 BKN022 20/14 Q1009 BECMG 24017G30KT
15:00
M
21 °C 10 km+ 2.000 ft 250° 250° 22 kt METAR LFRZ 151300Z AUTO 25022KT 9999 BKN020 21/16 Q1008 BECMG 24017G30KT
14:30
M
21 °C 10 km+ 1.900 ft 240° 240° 20 kt METAR LFRZ 151230Z AUTO 24020KT 9999 BKN019 OVC025 21/16 Q1008 BECMG 24017G30KT
14:00
M
21 °C 10 km+ 1.600 ft 240° 240° 20 kt METAR LFRZ 151200Z AUTO 24020KT 200V270 9999 BKN016 BKN023 BKN032 21/17 Q1007 BECMG 26017G30KT
13:30
V
21 °C 10 km+ 3.800 ft 210° 210° 11 kt METAR LFRZ 151130Z AUTO 21011KT 9999 FEW015 SCT026 BKN038 21/18 Q1007 BECMG 26017G30KT
13:00
V
20 °C 10 km+ 4.100 ft 170° 170° 8 kt METAR LFRZ 151100Z AUTO 17008KT 9999 FEW013 SCT033 BKN041 20/18 Q1007 BECMG 26017G30KT
12:30
V
19 °C 10 km+ 3.100 ft 150° 150° 6 kt METAR LFRZ 151030Z AUTO 15006KT 9999 BKN031 OVC039 19/17 Q1007 BECMG 26017G30KT
12:00
V
18 °C 9 km 3.300 ft 110° 110° 3 kt METAR LFRZ 151000Z AUTO 11003KT 9000 OVC033 18/17 Q1006 BECMG 26017G30KT
11:30
V
17 °C 10 km+ 3.600 ft Var Var 2 kt METAR LFRZ 150930Z AUTO VRB02KT 9999 OVC036 17/17 Q1006 BECMG 26017G30KT
11:00
M
17 °C 5 km 4.200 ft 100° 100° 6 kt METAR LFRZ 150900Z AUTO 10006KT 070V130 5000 -RA BR FEW022/// BKN042/// OVC050/// //////CB 17/16 Q1006 BECMG 26017G30KT SCT045 BKN080
10:30
I
16 °C 1,7 km 2.200 ft 130° 130° 7 kt METAR LFRZ 150830Z AUTO 13007KT 1700 -RA BR VCTS FEW015/// BKN022/// BKN035/// ///CB 16/16 Q1007 BECMG 26017G30KT 9999 NSW SCT045 BKN080
10:00
I
17 °C 4 km 4.200 ft 140° 140° 7 kt METAR LFRZ 150800Z AUTO 14007KT 9999 4000 RA VCTS BKN042/// OVC054/// ///CB 17/16 Q1007 TEMPO 4000 RA BECMG 26017G30KT SCT045 BKN080
09:30
M
16 °C 6 km - 130° 130° 14 kt METAR LFRZ 150730Z AUTO 13014KT 6000 -RA //////CB 16/16 Q1007 TEMPO 4000 RA BECMG 26017G30KT SCT045 BKN080
09:00
M
17 °C 6 km - 120° 120° 14 kt METAR LFRZ 150700Z AUTO 12014KT 6000 -RA ///CB 17/16 Q1007 TEMPO 4000 RA
08:30
V
16 °C 8 km 12.000 ft 110° 110° 11 kt METAR LFRZ 150630Z AUTO 11011KT 8000 -RA FEW041/// SCT052/// OVC120/// //////CB 16/15 Q1007 TEMPO 4000 RA
08:00
V
16 °C 8 km - Var Var 2 kt METAR LFRZ 150600Z AUTO VRB02KT 8000 -RA //////CB 16/15 Q1008 TEMPO 4000 RA
Segnala modifiche